Time;durP1;ratioP1;P1;durP2;ratioP2;P2;SDS_P1;SDS_P2;PMS_P1;PMS_P2;Temp;Humidity;BMP_temperature;BMP_pressure;BME280_temperature;BME280_humidity;BME280_pressure;Samples;Min_cycle;Max_cycle;Signal;HPM_P1;HPM_P2
2023/08/01 00:02:06;;;;;;;16.95;4.63;;;16.60;99.90;;;;;;5018029;28;20660;-67
2023/08/01 00:04:32;;;;;;;16.65;4.40;;;16.70;99.90;;;;;;5000183;28;20059;-67
2023/08/01 00:06:58;;;;;;;26.08;5.80;;;16.10;99.90;;;;;;5020334;28;20128;-67
2023/08/01 00:09:23;;;;;;;19.67;5.20;;;16.50;99.90;;;;;;5018229;28;20056;-68
2023/08/01 00:11:49;;;;;;;18.15;5.38;;;16.10;99.90;;;;;;5014606;28;20558;-66
2023/08/01 00:14:14;;;;;;;17.38;5.25;;;16.80;99.90;;;;;;5018605;28;20538;-68
2023/08/01 00:16:40;;;;;;;18.45;5.45;;;16.60;99.90;;;;;;5003439;28;20045;-67
2023/08/01 00:19:06;;;;;;;22.45;5.53;;;16.40;99.90;;;;;;5002619;28;20037;-67
2023/08/01 00:21:32;;;;;;;22.38;5.70;;;16.30;99.90;;;;;;5020544;28;20515;-67
2023/08/01 00:23:58;;;;;;;16.17;4.97;;;16.50;99.90;;;;;;5001833;28;20048;-67
2023/08/01 00:26:23;;;;;;;23.55;5.60;;;16.00;99.90;;;;;;5016911;28;20048;-66
2023/08/01 00:28:49;;;;;;;25.23;6.10;;;16.10;99.90;;;;;;4986304;28;20056;-67
2023/08/01 00:31:15;;;;;;;19.35;5.88;;;16.00;99.90;;;;;;5020262;28;20527;-67
2023/08/01 00:33:41;;;;;;;23.08;6.50;;;16.50;99.90;;;;;;5017717;28;20400;-66
2023/08/01 00:36:09;;;;;;;26.48;6.85;;;16.80;99.90;;;;;;5016947;28;20482;-67
2023/08/01 00:38:36;;;;;;;16.95;5.63;;;16.40;99.90;;;;;;5020618;28;20124;-67
2023/08/01 00:41:01;;;;;;;21.65;6.30;;;16.50;99.90;;;;;;5020426;28;20079;-67
2023/08/01 00:43:29;;;;;;;19.23;5.43;;;16.20;99.90;;;;;;5016929;28;20041;-66
2023/08/01 00:46:02;;;;;;;19.25;5.97;;;16.10;99.90;;;;;;5018266;28;20040;-66
2023/08/01 00:48:29;;;;;;;22.92;6.07;;;16.10;99.90;;;;;;5020832;28;20080;-67
2023/08/01 00:50:56;;;;;;;20.23;5.97;;;16.50;99.90;;;;;;5022972;28;20095;-67
2023/08/01 00:53:22;;;;;;;21.55;5.97;;;16.10;99.90;;;;;;5017412;28;20045;-67
2023/08/01 00:55:48;;;;;;;15.82;5.82;;;16.10;99.90;;;;;;5002685;28;20492;-66
2023/08/01 00:58:14;;;;;;;18.67;6.45;;;16.40;99.90;;;;;;5004780;28;20073;-66
2023/08/01 01:00:39;;;;;;;21.90;6.13;;;16.70;99.90;;;;;;5000467;28;20451;-66
2023/08/01 01:03:05;;;;;;;18.42;5.63;;;16.10;99.90;;;;;;5014843;28;20540;-66
2023/08/01 01:05:37;;;;;;;16.98;6.05;;;16.50;99.90;;;;;;5020497;28;20465;-66
2023/08/01 01:08:04;;;;;;;14.90;5.75;;;16.50;99.90;;;;;;5015644;28;20522;-67
2023/08/01 01:10:31;;;;;;;15.55;5.07;;;16.10;99.90;;;;;;5018448;28;20057;-66
2023/08/01 01:12:57;;;;;;;17.33;5.60;;;16.10;99.90;;;;;;5021141;28;20411;-67
2023/08/01 01:15:22;;;;;;;21.83;6.35;;;16.40;99.90;;;;;;5001944;28;20305;-66
2023/08/01 01:17:48;;;;;;;17.30;5.43;;;16.10;99.90;;;;;;5020864;28;21661;-66
2023/08/01 01:20:14;;;;;;;11.02;4.72;;;16.30;99.90;;;;;;5015348;28;20041;-66
2023/08/01 01:22:40;;;;;;;15.02;5.50;;;16.20;99.90;;;;;;5021336;28;20088;-67
2023/08/01 01:25:08;;;;;;;14.00;5.10;;;16.30;99.90;;;;;;5019908;28;20571;-67
2023/08/01 01:27:35;;;;;;;13.65;5.53;;;16.10;99.90;;;;;;5008429;28;20068;-67
2023/08/01 01:30:04;;;;;;;12.68;5.20;;;15.80;99.90;;;;;;5019988;28;20147;-66
2023/08/01 01:32:31;;;;;;;17.58;5.55;;;15.70;99.90;;;;;;5002545;28;20132;-67
2023/08/01 01:34:56;;;;;;;22.25;6.60;;;16.10;99.90;;;;;;5020008;28;20552;-66
2023/08/01 01:37:22;;;;;;;15.73;4.90;;;16.00;99.90;;;;;;5022217;28;20051;-67
2023/08/01 01:39:48;;;;;;;14.32;5.07;;;15.60;99.90;;;;;;5025504;28;20140;-67
2023/08/01 01:42:13;;;;;;;15.57;5.78;;;15.40;99.90;;;;;;5022847;28;20244;-66
2023/08/01 01:44:39;;;;;;;19.23;6.22;;;15.70;99.90;;;;;;5005437;28;20053;-66
2023/08/01 01:47:06;;;;;;;13.07;5.68;;;15.60;99.90;;;;;;5019939;28;20368;-65
2023/08/01 01:49:32;;;;;;;16.10;5.20;;;15.30;99.90;;;;;;5024153;28;20045;-66
2023/08/01 01:51:57;;;;;;;12.77;5.18;;;15.70;99.90;;;;;;5023099;28;20605;-66
2023/08/01 01:54:23;;;;;;;14.40;5.15;;;15.80;99.90;;;;;;5021817;28;20049;-66
2023/08/01 01:56:49;;;;;;;15.45;5.00;;;15.20;99.90;;;;;;5022453;28;20217;-65
2023/08/01 01:59:14;;;;;;;13.45;5.88;;;15.60;99.90;;;;;;5024539;28;20447;-66
2023/08/01 02:01:40;;;;;;;16.30;5.72;;;15.70;99.90;;;;;;5022711;28;20419;-67
2023/08/01 02:04:06;;;;;;;12.80;5.30;;;15.20;99.90;;;;;;5005479;28;20049;-65
2023/08/01 02:06:31;;;;;;;15.60;5.45;;;15.10;99.90;;;;;;5003217;28;20375;-66
2023/08/01 02:08:57;;;;;;;17.15;5.57;;;15.40;99.90;;;;;;5019505;28;20041;-66
2023/08/01 02:11:23;;;;;;;16.42;5.82;;;15.50;99.90;;;;;;5021888;28;20099;-65
2023/08/01 02:13:48;;;;;;;19.30;6.40;;;15.10;99.90;;;;;;5024349;28;20472;-66
2023/08/01 02:16:14;;;;;;;19.50;6.18;;;15.30;99.90;;;;;;5028349;28;20099;-65
2023/08/01 02:18:39;;;;;;;14.27;5.68;;;15.30;99.90;;;;;;5022565;28;20045;-67
2023/08/01 02:21:05;;;;;;;18.33;6.18;;;14.90;99.90;;;;;;5020918;28;20040;-66
2023/08/01 02:23:32;;;;;;;17.20;5.40;;;15.50;99.90;;;;;;5008716;28;20396;-66
2023/08/01 02:25:58;;;;;;;20.15;6.05;;;15.10;99.90;;;;;;5009260;28;20072;-67
2023/08/01 02:28:23;;;;;;;20.25;6.50;;;15.40;99.90;;;;;;5023997;28;20187;-66
2023/08/01 02:30:50;;;;;;;17.92;6.25;;;14.90;99.90;;;;;;5007143;28;20041;-66
2023/08/01 02:33:16;;;;;;;18.77;6.47;;;15.00;99.90;;;;;;5022120;28;20053;-65
2023/08/01 02:35:41;;;;;;;17.80;6.70;;;15.00;99.90;;;;;;5021474;28;20051;-66
2023/08/01 02:38:07;;;;;;;17.52;6.55;;;15.40;99.90;;;;;;5022905;28;20163;-66
2023/08/01 02:40:33;;;;;;;23.02;7.35;;;15.00;99.90;;;;;;5022377;28;20080;-66
2023/08/01 02:42:58;;;;;;;22.77;7.18;;;15.30;99.90;;;;;;5020243;28;20594;-66
2023/08/01 02:45:25;;;;;;;19.80;6.93;;;14.80;99.90;;;;;;5006037;28;20127;-66
2023/08/01 02:47:50;;;;;;;26.10;8.05;;;14.70;99.90;;;;;;5023373;28;20423;-66
2023/08/01 02:50:16;;;;;;;25.35;9.15;;;14.70;99.90;;;;;;5024103;28;20507;-66
2023/08/01 02:52:42;;;;;;;25.13;7.45;;;14.70;99.90;;;;;;5025018;28;20052;-66
2023/08/01 02:55:08;;;;;;;21.05;8.18;;;14.60;99.90;;;;;;5028591;28;20189;-66
2023/08/01 02:57:36;;;;;;;25.75;8.63;;;14.60;99.90;;;;;;5024006;28;20590;-66
2023/08/01 03:00:05;;;;;;;20.38;7.88;;;15.10;99.90;;;;;;5020088;28;20045;-68
2023/08/01 03:02:31;;;;;;;17.40;7.50;;;14.50;99.90;;;;;;5022593;28;20045;-67
2023/08/01 03:04:57;;;;;;;17.73;7.30;;;14.90;99.90;;;;;;5025436;28;20045;-66
2023/08/01 03:07:23;;;;;;;14.85;7.10;;;14.90;99.90;;;;;;5006290;28;20102;-67
2023/08/01 03:10:11;;;;;;;12.52;6.38;;;15.00;99.90;;;;;;5023921;28;20073;-66
2023/08/01 03:12:37;;;;;;;20.10;7.55;;;14.60;99.90;;;;;;5026904;28;20067;-67
2023/08/01 03:15:23;;;;;;;18.75;7.07;;;14.50;99.90;;;;;;5019099;28;20084;-68
2023/08/01 03:17:49;;;;;;;18.02;7.82;;;15.00;99.90;;;;;;5020082;28;20641;-67
2023/08/01 03:20:14;;;;;;;15.82;6.95;;;15.00;99.90;;;;;;5013286;28;20076;-68
2023/08/01 03:22:41;;;;;;;18.98;7.53;;;14.40;99.90;;;;;;5023691;28;20040;-67
2023/08/01 03:25:07;;;;;;;12.85;7.20;;;14.70;99.90;;;;;;5021387;28;20046;-66
2023/08/01 03:27:34;;;;;;;15.85;7.57;;;14.90;99.90;;;;;;5026304;28;20053;-67
2023/08/01 03:30:00;;;;;;;19.13;7.55;;;14.40;99.90;;;;;;5003300;28;20077;-67
2023/08/01 03:32:25;;;;;;;21.00;8.27;;;14.40;99.90;;;;;;5006640;28;20075;-67
2023/08/01 03:34:51;;;;;;;13.50;6.43;;;14.50;99.90;;;;;;5024508;28;20526;-67
2023/08/01 03:37:17;;;;;;;17.38;7.03;;;14.80;99.90;;;;;;5024723;28;20041;-68
2023/08/01 03:39:43;;;;;;;13.68;6.10;;;15.00;99.90;;;;;;5025254;28;20099;-67
2023/08/01 03:42:09;;;;;;;11.82;6.30;;;15.10;99.90;;;;;;5022326;28;20049;-67
2023/08/01 03:44:35;;;;;;;17.85;6.90;;;14.60;99.90;;;;;;5022224;28;20048;-67
2023/08/01 03:47:01;;;;;;;18.15;7.00;;;14.70;99.90;;;;;;5024472;28;20557;-68
2023/08/01 03:49:27;;;;;;;16.42;6.55;;;14.50;99.90;;;;;;4994709;28;20086;-67
2023/08/01 03:51:52;;;;;;;17.95;7.25;;;14.90;99.90;;;;;;5025471;28;20459;-69
2023/08/01 03:54:20;;;;;;;19.05;6.90;;;15.10;99.90;;;;;;5008613;28;20049;-67
2023/08/01 03:56:45;;;;;;;19.52;7.20;;;15.00;99.90;;;;;;5015767;28;20719;-68
2023/08/01 03:59:15;;;;;;;17.70;6.78;;;15.20;99.90;;;;;;5025419;28;20052;-67
2023/08/01 04:01:41;;;;;;;20.67;8.43;;;14.90;99.90;;;;;;5022793;28;20436;-65
2023/08/01 04:04:08;;;;;;;17.23;8.10;;;14.60;99.90;;;;;;5021830;28;20049;-66
2023/08/01 04:06:34;;;;;;;18.88;7.30;;;14.70;99.90;;;;;;5025687;28;20119;-65
2023/08/01 04:09:00;;;;;;;19.77;8.73;;;15.30;99.90;;;;;;4999591;28;20045;-65
2023/08/01 04:11:26;;;;;;;19.98;8.95;;;14.70;99.90;;;;;;5024910;28;20099;-65
2023/08/01 04:13:52;;;;;;;22.92;8.30;;;15.20;99.90;;;;;;5010426;28;20470;-66
2023/08/01 04:16:18;;;;;;;16.02;7.53;;;15.00;99.90;;;;;;5021585;28;20041;-66
2023/08/01 04:18:44;;;;;;;16.10;7.50;;;14.70;99.90;;;;;;5020436;28;20045;-65
2023/08/01 04:21:09;;;;;;;16.58;7.68;;;15.30;99.90;;;;;;5023204;28;20356;-66
2023/08/01 04:23:35;;;;;;;19.85;8.00;;;15.30;99.90;;;;;;5018980;28;20794;-66
2023/08/01 04:26:00;;;;;;;14.27;7.15;;;14.60;99.90;;;;;;5019635;28;20071;-66
2023/08/01 04:28:26;;;;;;;16.02;6.45;;;14.70;99.90;;;;;;5022245;28;20337;-66
2023/08/01 04:30:52;;;;;;;19.45;6.93;;;14.90;99.90;;;;;;5025027;28;20041;-67
2023/08/01 04:33:18;;;;;;;14.88;6.05;;;15.40;99.90;;;;;;5019645;28;20469;-66
2023/08/01 04:35:44;;;;;;;14.52;5.70;;;15.30;99.90;;;;;;5020332;28;20177;-65
2023/08/01 04:38:10;;;;;;;12.95;5.75;;;15.30;99.90;;;;;;5001483;28;20049;-66
2023/08/01 04:40:36;;;;;;;12.88;5.47;;;14.80;99.90;;;;;;5019142;28;20049;-65
2023/08/01 04:43:02;;;;;;;19.33;5.50;;;14.80;99.90;;;;;;5020517;28;20048;-66
2023/08/01 04:45:28;;;;;;;11.10;4.60;;;14.70;99.90;;;;;;5023785;28;20076;-66
2023/08/01 04:47:54;;;;;;;14.10;5.47;;;14.70;99.90;;;;;;5023924;28;20167;-67
2023/08/01 04:50:20;;;;;;;11.45;4.78;;;15.40;99.90;;;;;;5023742;28;20041;-66
2023/08/01 04:52:46;;;;;;;13.63;4.80;;;14.70;99.90;;;;;;5019664;28;20030;-65
2023/08/01 04:55:11;;;;;;;11.60;4.88;;;14.70;99.90;;;;;;5019038;28;20038;-65
2023/08/01 04:57:37;;;;;;;18.05;6.07;;;15.10;99.90;;;;;;5020287;28;20075;-65
2023/08/01 05:00:04;;;;;;;16.33;5.18;;;15.00;99.90;;;;;;5024358;28;20104;-66
2023/08/01 05:02:30;;;;;;;16.08;4.85;;;15.30;99.90;;;;;;5026720;28;20049;-65
2023/08/01 05:04:55;;;;;;;11.27;5.10;;;14.80;99.90;;;;;;5021754;28;20048;-65
2023/08/01 05:07:21;;;;;;;13.73;5.05;;;15.40;99.90;;;;;;5023773;28;20776;-66
2023/08/01 05:09:47;;;;;;;14.05;5.55;;;15.50;99.90;;;;;;5026570;28;20277;-65
2023/08/01 05:12:12;;;;;;;15.00;4.70;;;15.00;99.90;;;;;;5026026;28;20041;-65
2023/08/01 05:14:38;;;;;;;13.00;4.45;;;14.90;99.90;;;;;;5027695;28;20045;-66
2023/08/01 05:17:04;;;;;;;15.18;3.75;;;15.00;99.90;;;;;;5023705;28;20095;-66
2023/08/01 05:19:30;;;;;;;14.20;3.90;;;15.60;99.90;;;;;;5027890;28;20519;-66
2023/08/01 05:21:55;;;;;;;13.85;3.75;;;15.60;99.90;;;;;;5010412;28;20055;-67
2023/08/01 05:24:21;;;;;;;13.63;3.03;;;15.40;99.90;;;;;;5008494;28;20641;-66
2023/08/01 05:26:47;;;;;;;12.85;3.13;;;15.80;99.90;;;;;;5026596;28;20357;-66
2023/08/01 05:29:13;;;;;;;13.95;2.90;;;15.50;99.90;;;;;;5022722;28;20036;-65
2023/08/01 05:31:38;;;;;;;11.93;2.95;;;15.40;99.90;;;;;;5001878;28;20493;-66
2023/08/01 05:34:04;;;;;;;11.00;2.20;;;15.90;99.90;;;;;;5023101;28;20470;-67
2023/08/01 05:36:31;;;;;;;13.38;2.67;;;15.90;99.90;;;;;;5024425;28;20045;-66
2023/08/01 05:38:57;;;;;;;6.88;2.00;;;15.70;99.90;;;;;;5020019;28;20073;-68
2023/08/01 05:41:23;;;;;;;10.48;2.13;;;16.40;99.90;;;;;;5018292;28;20045;-67
2023/08/01 05:43:49;;;;;;;11.60;2.80;;;16.60;99.90;;;;;;4996423;28;20109;-67
2023/08/01 05:46:15;;;;;;;6.05;1.30;;;16.40;99.90;;;;;;5016175;28;20036;-67
2023/08/01 05:48:41;;;;;;;7.35;1.70;;;17.00;99.90;;;;;;5002677;28;20247;-68
2023/08/01 05:51:07;;;;;;;8.52;1.60;;;17.20;99.90;;;;;;4999994;28;20045;-68
2023/08/01 05:53:33;;;;;;;6.95;1.40;;;17.40;99.90;;;;;;5019068;28;20053;-67
2023/08/01 05:55:58;;;;;;;10.23;1.45;;;17.40;99.90;;;;;;5001818;28;20041;-66
2023/08/01 05:58:24;;;;;;;8.80;1.52;;;17.10;99.90;;;;;;4998077;28;20493;-67
2023/08/01 06:00:50;;;;;;;4.10;1.00;;;17.10;99.90;;;;;;5016692;28;20041;-68
2023/08/01 06:03:16;;;;;;;8.85;1.65;;;16.60;99.90;;;;;;5015063;28;20047;-66
2023/08/01 06:05:42;;;;;;;8.57;1.65;;;17.00;99.90;;;;;;5011869;28;20077;-67
2023/08/01 06:08:08;;;;;;;5.25;1.20;;;16.30;99.90;;;;;;4993421;28;20040;-67
2023/08/01 06:10:34;;;;;;;7.82;1.35;;;16.30;99.90;;;;;;5013911;28;20564;-67
2023/08/01 06:13:00;;;;;;;9.48;1.80;;;16.00;99.90;;;;;;5017596;28;20507;-67
2023/08/01 06:15:26;;;;;;;4.40;1.42;;;16.40;99.90;;;;;;5001934;28;20179;-68
2023/08/01 06:17:52;;;;;;;6.68;1.38;;;16.20;99.90;;;;;;5023798;28;20526;-68
2023/08/01 06:20:18;;;;;;;9.15;1.70;;;16.40;99.90;;;;;;5015154;28;20233;-67
2023/08/01 06:22:43;;;;;;;10.07;2.00;;;16.00;99.90;;;;;;5016845;28;20053;-67
2023/08/01 06:25:09;;;;;;;10.38;1.85;;;16.00;99.90;;;;;;4998860;28;20041;-67
2023/08/01 06:27:35;;;;;;;5.97;1.80;;;16.30;99.90;;;;;;4997814;28;20670;-69
2023/08/01 06:30:01;;;;;;;9.05;2.00;;;15.90;99.90;;;;;;4997312;28;20144;-67
2023/08/01 06:32:26;;;;;;;11.90;2.30;;;15.90;99.90;;;;;;5014220;28;20106;-68
2023/08/01 06:34:52;;;;;;;8.05;2.00;;;16.40;99.90;;;;;;5016469;28;20069;-68
2023/08/01 06:37:19;;;;;;;5.82;1.70;;;15.90;99.90;;;;;;5012993;28;20111;-68
2023/08/01 06:39:45;;;;;;;10.75;2.08;;;16.10;99.90;;;;;;5013159;28;20029;-69
2023/08/01 06:42:10;;;;;;;8.23;1.90;;;16.20;99.90;;;;;;5000461;28;20349;-66
2023/08/01 06:44:36;;;;;;;7.63;2.10;;;15.70;99.90;;;;;;4996571;28;20148;-66
2023/08/01 06:47:02;;;;;;;7.00;1.80;;;15.50;99.90;;;;;;5014651;28;20337;-66
2023/08/01 06:49:28;;;;;;;8.45;2.22;;;15.90;99.90;;;;;;5014000;28;20046;-67
2023/08/01 06:51:53;;;;;;;3.72;1.40;;;15.30;99.90;;;;;;5012074;28;20049;-67
2023/08/01 06:54:19;;;;;;;4.22;1.70;;;15.60;99.90;;;;;;5012212;28;20457;-66
2023/08/01 06:56:47;;;;;;;5.88;2.00;;;15.20;99.90;;;;;;5018060;28;20059;-67
2023/08/01 06:59:14;;;;;;;5.03;1.88;;;15.80;99.90;;;;;;5016102;28;20178;-66
2023/08/01 07:01:43;;;;;;;5.57;1.60;;;15.70;99.90;;;;;;5013903;28;20045;-67
2023/08/01 07:04:09;;;;;;;5.35;1.65;;;15.40;99.90;;;;;;5018595;28;20052;-67
2023/08/01 07:06:35;;;;;;;5.05;1.20;;;15.60;99.90;;;;;;4995405;28;20033;-67
2023/08/01 07:09:02;;;;;;;6.65;1.40;;;15.30;99.90;;;;;;5019409;28;20037;-67
2023/08/01 07:11:31;;;;;;;7.00;1.92;;;15.90;99.90;;;;;;5019043;28;20041;-67
2023/08/01 07:13:57;;;;;;;5.82;1.40;;;15.90;99.90;;;;;;5000954;28;20044;-67
2023/08/01 07:16:22;;;;;;;6.43;1.65;;;15.60;99.90;;;;;;5016593;28;20426;-67
2023/08/01 07:18:48;;;;;;;6.15;1.15;;;16.00;99.90;;;;;;4997984;28;20037;-68
2023/08/01 07:21:14;;;;;;;5.03;1.33;;;16.10;99.90;;;;;;5015380;28;20040;-67
2023/08/01 07:23:40;;;;;;;5.38;1.23;;;16.10;99.90;;;;;;5014377;28;20403;-67
2023/08/01 07:26:06;;;;;;;5.03;1.48;;;16.20;99.90;;;;;;4995290;28;20091;-68
2023/08/01 07:28:32;;;;;;;5.80;1.20;;;16.30;99.90;;;;;;5014878;28;20747;-67
2023/08/01 07:30:59;;;;;;;2.85;1.05;;;16.60;99.90;;;;;;4995321;28;20037;-67
2023/08/01 07:33:25;;;;;;;4.78;0.70;;;16.70;99.90;;;;;;5007958;28;20044;-68
2023/08/01 07:35:52;;;;;;;2.92;0.60;;;16.60;99.90;;;;;;5016435;28;20053;-68
2023/08/01 07:38:18;;;;;;;3.20;0.75;;;17.10;99.90;;;;;;4997757;28;20053;-68
2023/08/01 07:40:43;;;;;;;2.22;0.60;;;17.30;99.90;;;;;;5012394;28;20103;-68
2023/08/01 07:43:09;;;;;;;3.78;0.40;;;18.00;99.90;;;;;;5010482;28;20043;-67
2023/08/01 07:45:35;;;;;;;1.92;0.40;;;18.30;99.90;;;;;;4997753;28;20131;-66
2023/08/01 07:48:00;;;;;;;1.63;0.30;;;19.10;99.90;;;;;;5011673;28;20041;-67
2023/08/01 07:50:26;;;;;;;2.28;0.40;;;18.30;99.90;;;;;;4999457;28;20037;-68
2023/08/01 07:52:53;;;;;;;1.48;0.30;;;18.40;99.90;;;;;;5012238;28;20303;-66
2023/08/01 07:55:21;;;;;;;2.28;0.30;;;17.80;99.90;;;;;;4995522;28;20337;-66
2023/08/01 07:57:50;;;;;;;2.83;0.30;;;17.80;99.90;;;;;;5010514;28;20099;-65
2023/08/01 08:00:16;;;;;;;3.10;0.40;;;17.50;99.90;;;;;;5027596;28;20097;-66
2023/08/01 08:02:43;;;;;;;2.78;0.40;;;17.60;99.90;;;;;;5013127;28;20061;-66
2023/08/01 08:05:10;;;;;;;2.35;0.30;;;17.50;99.90;;;;;;5013210;28;20047;-66
2023/08/01 08:07:36;;;;;;;3.63;0.43;;;17.60;99.90;;;;;;5030072;28;20052;-65
2023/08/01 08:10:03;;;;;;;4.35;0.32;;;17.30;99.90;;;;;;5013121;28;20041;-65
2023/08/01 08:12:29;;;;;;;5.80;0.47;;;17.50;99.90;;;;;;5030008;28;20052;-65
2023/08/01 08:14:54;;;;;;;4.55;0.43;;;17.10;99.90;;;;;;5013934;28;20045;-65
2023/08/01 08:17:20;;;;;;;4.07;0.40;;;16.90;99.90;;;;;;5014230;28;20391;-66
2023/08/01 08:19:46;;;;;;;6.65;0.40;;;16.70;99.90;;;;;;5013566;28;20632;-66
2023/08/01 08:22:12;;;;;;;4.75;0.30;;;16.90;99.90;;;;;;5013679;28;20040;-66
2023/08/01 08:24:38;;;;;;;3.95;0.50;;;16.60;99.90;;;;;;5029690;28;20248;-67
2023/08/01 08:27:05;;;;;;;4.03;0.30;;;16.50;99.90;;;;;;5030413;28;20384;-65
2023/08/01 08:29:31;;;;;;;5.25;0.80;;;16.80;99.90;;;;;;5030475;28;20479;-66
2023/08/01 08:31:57;;;;;;;5.22;0.40;;;16.80;99.90;;;;;;5029754;28;20475;-65
2023/08/01 08:34:23;;;;;;;3.67;0.40;;;16.70;99.90;;;;;;5029664;28;20037;-65
2023/08/01 08:36:50;;;;;;;4.00;0.30;;;16.40;99.90;;;;;;5029390;28;20509;-66
2023/08/01 08:39:18;;;;;;;5.25;0.43;;;16.50;99.90;;;;;;5012836;28;20040;-66
2023/08/01 08:41:51;;;;;;;4.72;0.40;;;16.70;99.90;;;;;;5030099;28;20395;-66
2023/08/01 08:44:21;;;;;;;5.40;0.40;;;16.60;99.90;;;;;;5029877;28;20158;-65
2023/08/01 08:46:52;;;;;;;2.30;0.30;;;16.70;99.90;;;;;;5029791;28;20045;-66
2023/08/01 08:49:21;;;;;;;3.28;0.30;;;16.70;99.90;;;;;;5010317;28;20045;-65
2023/08/01 08:51:47;;;;;;;1.65;0.30;;;16.70;99.90;;;;;;5010642;28;20290;-65
2023/08/01 08:54:15;;;;;;;4.57;0.30;;;16.80;99.90;;;;;;5010253;28;20034;-66
2023/08/01 08:56:42;;;;;;;4.25;0.77;;;17.10;99.90;;;;;;5011077;28;20044;-66
2023/08/01 08:59:10;;;;;;;4.35;0.45;;;17.60;99.90;;;;;;5029171;28;20040;-66
2023/08/01 09:01:37;;;;;;;4.03;0.40;;;17.60;99.90;;;;;;5029727;28;20045;-66
2023/08/01 09:04:03;;;;;;;2.78;0.20;;;17.50;99.90;;;;;;5029048;28;20064;-65
2023/08/01 09:06:32;;;;;;;2.13;0.32;;;17.40;99.90;;;;;;5029334;28;20053;-65
2023/08/01 09:09:09;;;;;;;1.92;0.38;;;16.80;99.90;;;;;;5030118;28;20511;-65
2023/08/01 09:11:55;;;;;;;1.67;0.20;;;16.40;99.90;;;;;;5013257;28;20048;-64
2023/08/01 09:14:22;;;;;;;2.25;0.30;;;16.00;99.90;;;;;;5029329;28;20041;-64
2023/08/01 09:16:48;;;;;;;1.70;0.25;;;15.90;99.90;;;;;;5013081;28;20041;-65
2023/08/01 09:19:19;;;;;;;1.90;0.20;;;16.00;99.90;;;;;;5029672;28;20064;-64
2023/08/01 09:21:45;;;;;;;2.05;0.20;;;16.20;99.90;;;;;;5029536;28;20048;-65
2023/08/01 09:24:21;;;;;;;4.22;0.30;;;16.20;99.90;;;;;;5029251;28;20041;-64
2023/08/01 09:26:49;;;;;;;2.45;0.30;;;16.00;99.90;;;;;;5012643;28;20496;-65
2023/08/01 09:29:18;;;;;;;2.55;0.30;;;15.60;99.90;;;;;;5010471;28;20071;-64
2023/08/01 09:31:44;;;;;;;3.30;0.40;;;15.90;99.90;;;;;;5022064;28;20203;-65
2023/08/01 09:34:24;;;;;;;3.25;0.30;;;16.00;99.90;;;;;;4994046;28;20471;-66
2023/08/01 09:36:51;;;;;;;1.42;0.40;;;15.60;99.90;;;;;;5012458;28;20060;-66
2023/08/01 09:39:19;;;;;;;4.40;0.55;;;15.50;99.90;;;;;;4995151;28;20569;-65
2023/08/01 09:41:46;;;;;;;2.97;0.40;;;15.90;99.90;;;;;;5019140;28;20117;-65
2023/08/01 09:44:16;;;;;;;2.83;0.38;;;16.20;99.90;;;;;;4985008;28;20088;-66
2023/08/01 09:46:43;;;;;;;2.72;0.47;;;16.00;99.90;;;;;;5013719;28;20067;-65
2023/08/01 09:49:12;;;;;;;2.47;0.20;;;15.90;99.90;;;;;;4998182;28;20668;-64
2023/08/01 09:51:51;;;;;;;2.20;0.20;;;16.00;99.90;;;;;;5032097;28;20045;-66
2023/08/01 09:54:17;;;;;;;3.67;0.52;;;16.10;99.90;;;;;;5015658;28;20147;-65
2023/08/01 09:56:49;;;;;;;2.78;0.50;;;15.80;99.90;;;;;;5014073;28;20195;-65
2023/08/01 09:59:23;;;;;;;3.50;0.40;;;15.90;99.90;;;;;;5027405;28;20608;-65
2023/08/01 10:01:51;;;;;;;2.65;0.30;;;16.50;99.90;;;;;;5017131;28;20061;-64
2023/08/01 10:04:40;;;;;;;2.35;0.30;;;16.90;99.90;;;;;;5015429;28;20116;-65
2023/08/01 10:07:11;;;;;;;4.35;0.50;;;17.00;99.90;;;;;;5014961;28;20453;-65
2023/08/01 10:09:37;;;;;;;3.08;0.30;;;17.00;99.90;;;;;;5018061;28;20093;-66
2023/08/01 10:12:05;;;;;;;2.83;0.30;;;16.80;99.90;;;;;;5000457;28;20690;-67
2023/08/01 10:14:32;;;;;;;4.53;0.40;;;16.80;99.90;;;;;;5013236;28;20751;-67
2023/08/01 10:16:59;;;;;;;4.85;0.50;;;16.80;99.90;;;;;;5015929;28;20068;-65
2023/08/01 10:19:26;;;;;;;5.40;0.50;;;16.40;99.90;;;;;;5015602;28;20201;-65
2023/08/01 10:21:53;;;;;;;4.65;0.47;;;16.20;99.90;;;;;;5016656;28;20041;-66
2023/08/01 10:24:19;;;;;;;7.85;0.60;;;16.20;99.90;;;;;;5017877;28;20048;-65
2023/08/01 10:26:46;;;;;;;4.82;0.50;;;16.40;99.90;;;;;;5011571;28;20514;-66
2023/08/01 10:29:12;;;;;;;7.45;0.60;;;16.90;99.90;;;;;;5013804;28;20546;-66
2023/08/01 10:31:38;;;;;;;6.40;0.60;;;16.30;99.90;;;;;;5000520;28;20330;-67
2023/08/01 10:34:12;;;;;;;5.07;0.40;;;16.60;99.90;;;;;;5014200;28;20175;-66
2023/08/01 10:36:38;;;;;;;2.92;0.60;;;16.30;99.90;;;;;;5015746;28;20041;-66
2023/08/01 10:39:04;;;;;;;8.52;0.73;;;16.20;99.90;;;;;;4997948;28;20048;-66
2023/08/01 10:41:32;;;;;;;6.40;0.40;;;15.80;99.90;;;;;;4997096;28;20176;-66
2023/08/01 10:44:24;;;;;;;9.00;0.60;;;16.40;99.90;;;;;;5012643;28;20048;-67
2023/08/01 10:46:54;;;;;;;7.93;0.60;;;16.00;99.90;;;;;;4995948;28;20757;-66
2023/08/01 10:49:32;;;;;;;3.63;0.50;;;16.70;99.90;;;;;;4998881;28;20091;-66
2023/08/01 10:51:58;;;;;;;5.60;0.57;;;16.50;99.90;;;;;;5013225;28;20407;-66
2023/08/01 10:54:25;;;;;;;6.57;0.80;;;17.30;99.90;;;;;;4996237;28;20080;-66
2023/08/01 10:56:53;;;;;;;5.30;0.50;;;18.00;99.90;;;;;;5024551;28;20356;-66
2023/08/01 10:59:20;;;;;;;8.88;0.70;;;17.70;99.90;;;;;;4996034;28;20233;-67
2023/08/01 11:01:49;;;;;;;5.68;0.63;;;17.80;99.90;;;;;;4995539;28;20048;-66
2023/08/01 11:04:24;;;;;;;7.43;0.40;;;17.60;99.90;;;;;;5011859;28;20582;-65
2023/08/01 11:06:53;;;;;;;7.25;0.90;;;16.50;99.90;;;;;;4994918;28;20053;-67
2023/08/01 11:09:20;;;;;;;6.03;0.57;;;17.00;99.90;;;;;;5023331;28;20045;-64
2023/08/01 11:11:49;;;;;;;8.75;0.80;;;16.60;99.90;;;;;;5012179;28;20128;-64
2023/08/01 11:14:15;;;;;;;5.32;0.60;;;16.30;99.90;;;;;;5014610;28;20039;-66
2023/08/01 11:16:43;;;;;;;7.25;0.90;;;16.70;99.90;;;;;;4998065;28;20522;-66
2023/08/01 11:19:19;;;;;;;8.95;0.88;;;16.50;99.90;;;;;;5015115;28;20671;-68
2023/08/01 11:21:45;;;;;;;9.98;1.23;;;16.00;99.90;;;;;;5014856;28;20033;-66
2023/08/01 11:24:10;;;;;;;8.88;1.15;;;16.20;99.90;;;;;;5016045;28;20479;-65
2023/08/01 11:26:41;;;;;;;6.63;0.88;;;16.60;99.90;;;;;;4998687;28;20457;-65
2023/08/01 11:29:06;;;;;;;10.60;0.65;;;16.50;99.90;;;;;;5015344;28;20045;-65
2023/08/01 11:31:32;;;;;;;8.88;0.93;;;17.20;99.90;;;;;;5013128;28;20057;-65
2023/08/01 11:33:58;;;;;;;6.80;0.70;;;17.10;99.90;;;;;;4998664;28;20131;-66
2023/08/01 11:36:28;;;;;;;6.40;0.55;;;17.80;99.90;;;;;;5020472;28;20041;-64
2023/08/01 11:38:57;;;;;;;6.88;0.77;;;17.70;99.90;;;;;;5014677;28;20494;-66
2023/08/01 11:41:24;;;;;;;5.78;0.43;;;17.70;99.90;;;;;;5016364;28;20044;-65
2023/08/01 11:43:51;;;;;;;5.28;0.50;;;17.70;99.90;;;;;;5012596;28;20483;-64
2023/08/01 11:46:16;;;;;;;5.28;0.40;;;18.50;99.90;;;;;;5012120;28;20367;-65
2023/08/01 11:48:46;;;;;;;4.85;0.70;;;19.10;99.90;;;;;;5009200;28;20394;-65
2023/08/01 11:51:12;;;;;;;4.60;0.40;;;19.40;99.90;;;;;;4997522;28;20483;-65
2023/08/01 11:53:38;;;;;;;3.50;0.22;;;19.70;99.90;;;;;;5012668;28;20056;-65
2023/08/01 11:56:07;;;;;;;2.97;0.30;;;20.40;99.90;;;;;;5016059;28;20049;-64
2023/08/01 11:58:35;;;;;;;2.63;0.20;;;20.70;99.90;;;;;;4997585;28;20061;-65
2023/08/01 12:01:14;;;;;;;4.45;0.57;;;20.40;99.90;;;;;;5016764;28;20071;-64
2023/08/01 12:03:50;;;;;;;4.55;0.47;;;19.90;99.90;;;;;;5011315;28;20057;-64
2023/08/01 12:06:17;;;;;;;4.40;0.40;;;19.60;99.90;;;;;;5026361;28;20087;-64
2023/08/01 12:08:45;;;;;;;5.18;0.35;;;19.20;99.90;;;;;;5016063;28;20053;-65
2023/08/01 12:11:38;;;;;;;2.17;0.30;;;19.30;99.90;;;;;;5012621;28;20067;-65
2023/08/01 12:14:11;;;;;;;6.47;0.60;;;19.30;99.90;;;;;;4998407;28;20049;-65
2023/08/01 12:16:46;;;;;;;5.07;0.47;;;19.40;99.90;;;;;;5011690;28;20598;-65
2023/08/01 12:19:19;;;;;;;3.63;0.40;;;19.40;99.90;;;;;;5013640;28;20111;-65
2023/08/01 12:21:45;;;;;;;4.72;0.30;;;19.30;99.90;;;;;;4996560;28;20317;-65
2023/08/01 12:24:11;;;;;;;2.70;0.30;;;19.50;99.90;;;;;;5014640;28;20321;-65
2023/08/01 12:26:37;;;;;;;2.75;0.35;;;19.50;99.90;;;;;;5019426;28;20052;-65
2023/08/01 12:29:02;;;;;;;2.53;0.20;;;19.60;99.90;;;;;;4997959;28;20056;-65
2023/08/01 12:31:28;;;;;;;2.75;0.22;;;19.90;99.90;;;;;;5013815;28;20057;-64
2023/08/01 12:33:54;;;;;;;2.53;0.30;;;20.20;99.90;;;;;;4998528;28;20427;-65
2023/08/01 12:36:20;;;;;;;3.63;0.30;;;20.00;99.90;;;;;;5013918;28;20037;-64
2023/08/01 12:38:46;;;;;;;2.00;0.20;;;19.70;99.90;;;;;;5015049;28;20045;-65
2023/08/01 12:41:12;;;;;;;3.50;0.20;;;19.30;99.90;;;;;;5011396;28;20577;-65
2023/08/01 12:43:38;;;;;;;4.03;0.25;;;18.90;99.90;;;;;;5011751;28;20072;-65